Time;durP1;ratioP1;P1;durP2;ratioP2;P2;SDS_P1;SDS_P2;PMS_P1;PMS_P2;Temp;Humidity;BMP_temperature;BMP_pressure;BME280_temperature;BME280_humidity;BME280_pressure;Samples;Min_cycle;Max_cycle;Signal;HPM_P1;HPM_P2
2021/05/06 00:02:31;;;;;;;6.13;1.60;;;;;;;4.51;65.90;99645.44;5086218;28;20215;-76
2021/05/06 00:08:01;;;;;;;4.30;1.63;;;;;;;4.55;65.13;99632.47;5085790;28;20234;-77
2021/05/06 00:32:30;;;;;;;4.27;2.03;;;;;;;4.31;64.80;99625.75;5085351;28;20218;-76
2021/05/06 00:34:56;;;;;;;6.57;1.60;;;;;;;4.36;64.45;99617.97;5085069;28;20228;-77
2021/05/06 00:37:23;;;;;;;3.77;1.80;;;;;;;4.38;65.40;99627.47;5085609;28;20231;-76
2021/05/06 00:39:52;;;;;;;5.80;2.57;;;;;;;4.38;64.86;99614.53;5085120;28;20747;-77
2021/05/06 00:42:32;;;;;;;4.37;2.17;;;;;;;4.39;64.78;99615.38;5085262;28;20261;-75
2021/05/06 00:56:33;;;;;;;5.80;1.60;;;;;;;4.25;66.18;99622.38;5084926;28;20214;-76
2021/05/06 01:04:31;;;;;;;4.17;1.67;;;;;;;4.17;66.55;99632.75;5081391;28;20689;-77
2021/05/06 01:07:06;;;;;;;2.33;1.30;;;;;;;4.20;66.54;99631.88;5085059;28;20310;-76
2021/05/06 01:09:38;;;;;;;3.63;1.80;;;;;;;4.17;67.23;99630.16;5083419;28;20207;-76
2021/05/06 01:12:05;;;;;;;3.40;1.87;;;;;;;4.13;67.03;99636.22;5084929;28;20204;-76
2021/05/06 01:14:31;;;;;;;2.93;1.80;;;;;;;4.14;67.48;99638.81;5083928;28;20219;-76
2021/05/06 01:16:57;;;;;;;3.20;2.20;;;;;;;4.14;66.75;99640.50;5083960;28;20232;-77
2021/05/06 01:19:23;;;;;;;3.33;1.80;;;;;;;4.11;67.18;99637.97;5083656;28;20734;-76
2021/05/06 01:21:52;;;;;;;2.17;1.30;;;;;;;4.08;67.28;99633.66;5083783;28;20690;-76
2021/05/06 01:24:18;;;;;;;5.63;1.77;;;;;;;4.00;67.33;99637.16;5084377;28;20910;-76
2021/05/06 01:26:50;;;;;;;2.67;1.50;;;;;;;3.91;67.66;99635.47;5084060;28;20283;-76
2021/05/06 01:29:21;;;;;;;3.73;1.87;;;;;;;3.95;68.57;99638.03;5084288;28;20301;-76
2021/05/06 01:31:52;;;;;;;4.70;1.83;;;;;;;3.88;68.71;99633.75;5084438;28;20204;-76
2021/05/06 01:34:20;;;;;;;3.47;1.20;;;;;;;3.85;69.72;99636.38;5083651;28;20721;-77
2021/05/06 01:36:49;;;;;;;3.83;1.97;;;;;;;3.81;69.77;99639.81;5084349;28;20608;-76
2021/05/06 01:39:37;;;;;;;2.37;1.33;;;;;;;3.75;70.33;99639.84;5083905;28;20200;-75
2021/05/06 01:42:07;;;;;;;2.77;1.37;;;;;;;3.78;70.51;99637.25;5083557;28;20204;-76
2021/05/06 01:47:21;;;;;;;4.80;1.60;;;;;;;3.65;71.28;99640.72;5076502;28;20224;-77
2021/05/06 01:50:05;;;;;;;5.83;1.60;;;;;;;3.62;70.88;99643.34;5084095;28;20265;-76
2021/05/06 01:58:07;;;;;;;4.13;1.93;;;;;;;3.45;72.43;99638.22;5082920;28;20232;-76
2021/05/06 02:00:35;;;;;;;3.70;2.17;;;;;;;3.40;72.17;99643.41;5083951;28;20207;-77
2021/05/06 02:03:01;;;;;;;7.50;1.80;;;;;;;3.35;72.57;99637.38;5083698;28;20211;-77
2021/05/06 02:05:28;;;;;;;4.40;1.70;;;;;;;3.32;72.65;99640.00;5083742;28;20204;-76
2021/05/06 02:07:54;;;;;;;3.13;2.00;;;;;;;3.27;72.80;99640.00;5083921;28;20701;-77
2021/05/06 02:10:24;;;;;;;3.97;1.60;;;;;;;3.28;72.64;99631.41;5083614;28;20214;-77
2021/05/06 02:12:51;;;;;;;3.30;1.60;;;;;;;3.30;73.38;99633.97;5083447;28;20310;-77
2021/05/06 02:15:19;;;;;;;2.30;2.00;;;;;;;3.20;73.96;99632.28;5083564;28;20314;-76
2021/05/06 02:17:46;;;;;;;2.80;1.77;;;;;;;3.20;74.11;99629.72;5082853;28;20295;-76
2021/05/06 02:20:14;;;;;;;4.43;1.43;;;;;;;3.18;73.92;99633.13;5082686;28;20207;-76
2021/05/06 02:22:40;;;;;;;4.90;2.07;;;;;;;3.20;73.28;99621.97;5082636;28;20215;-78
2021/05/06 02:25:07;;;;;;;3.03;1.63;;;;;;;3.21;73.35;99627.13;5083425;28;20621;-76
2021/05/06 02:27:35;;;;;;;3.17;1.30;;;;;;;3.21;73.75;99632.28;5082743;28;20255;-76
2021/05/06 02:30:01;;;;;;;3.13;1.50;;;;;;;3.14;74.86;99613.38;5083256;28;20203;-76
2021/05/06 02:32:28;;;;;;;4.47;1.90;;;;;;;3.23;74.27;99622.84;5083570;28;20260;-76
2021/05/06 02:34:54;;;;;;;3.57;2.03;;;;;;;3.27;73.69;99624.53;5082503;28;20359;-75
2021/05/06 02:37:20;;;;;;;4.40;1.73;;;;;;;3.28;74.51;99622.81;5083237;28;20263;-75
2021/05/06 02:39:46;;;;;;;5.43;1.83;;;;;;;3.32;73.54;99625.38;5082589;28;20552;-76
2021/05/06 02:42:12;;;;;;;3.83;1.80;;;;;;;3.31;74.93;99618.50;5083150;28;20750;-76
2021/05/06 02:44:39;;;;;;;3.13;1.87;;;;;;;3.37;74.71;99615.91;5082640;28;20234;-76
2021/05/06 02:47:05;;;;;;;3.90;1.67;;;;;;;3.40;74.64;99615.03;5082412;28;20701;-76
2021/05/06 02:49:31;;;;;;;3.33;1.67;;;;;;;3.42;75.14;99615.03;5082967;28;20242;-76
2021/05/06 02:52:03;;;;;;;2.40;1.67;;;;;;;3.43;74.37;99606.41;5083110;28;20949;-76
2021/05/06 02:54:35;;;;;;;3.17;1.73;;;;;;;3.38;75.59;99604.72;5082242;28;20698;-77
2021/05/06 02:57:06;;;;;;;3.63;1.80;;;;;;;3.44;75.70;99601.25;5082665;28;20231;-76
2021/05/06 03:02:42;;;;;;;4.27;1.80;;;;;;;3.45;76.07;99592.66;5082592;28;20211;-76
2021/05/06 03:02:49;;;;;;;4.00;2.00;;;;;;;3.45;76.40;99591.78;5082952;28;20686;-77
2021/05/06 03:05:15;;;;;;;3.90;2.17;;;;;;;3.54;75.97;99589.19;5082301;28;20234;-76
2021/05/06 03:07:45;;;;;;;4.90;1.80;;;;;;;3.55;76.65;99590.91;5082602;28;20306;-76
2021/05/06 03:10:19;;;;;;;3.77;1.87;;;;;;;3.58;76.05;99588.31;5082618;28;20290;-77
2021/05/06 03:13:09;;;;;;;6.47;1.97;;;;;;;3.58;76.46;99580.56;5081966;28;20216;-75
2021/05/06 03:21:25;;;;;;;4.23;1.90;;;;;;;3.66;76.52;99578.78;5081646;28;20304;-77
2021/05/06 03:23:51;;;;;;;2.20;1.90;;;;;;;3.69;76.65;99577.94;5081859;28;20211;-77
2021/05/06 03:26:18;;;;;;;6.70;2.10;;;;;;;3.71;76.74;99578.78;5082962;28;20292;-76
2021/05/06 03:28:47;;;;;;;4.70;2.07;;;;;;;3.78;75.78;99573.56;5080885;28;20219;-76
2021/05/06 03:31:31;;;;;;;3.30;2.43;;;;;;;3.80;74.61;99581.31;5081541;28;20233;-77
2021/05/06 03:42:10;;;;;;;4.17;2.60;;;;;;;3.98;75.11;99570.00;5081830;28;20215;-76
2021/05/06 03:44:49;;;;;;;5.53;3.33;;;;;;;4.03;73.99;99565.69;5080891;28;20735;-76
2021/05/06 03:47:52;;;;;;;5.37;3.10;;;;;;;4.08;73.66;99568.22;5081281;28;20227;-76
2021/05/06 04:17:53;;;;;;;6.50;5.80;;;;;;;4.35;73.64;99554.28;5073833;28;20219;-77
2021/05/06 04:25:59;;;;;;;8.07;5.90;;;;;;;4.48;74.08;99563.66;5084792;28;20215;-77
2021/05/06 04:31:20;;;;;;;14.57;6.53;;;;;;;4.60;73.68;99570.44;5085145;28;20213;-77
2021/05/06 04:36:38;;;;;;;7.47;6.70;;;;;;;4.70;73.71;99560.88;5084553;28;20692;-77
2021/05/06 04:39:09;;;;;;;7.63;6.90;;;;;;;4.78;73.44;99564.25;5084745;28;20203;-77
2021/05/06 04:41:43;;;;;;;8.80;7.60;;;;;;;4.80;73.10;99557.31;5084509;28;20208;-77
2021/05/06 04:44:52;;;;;;;8.30;7.57;;;;;;;4.68;72.35;99560.88;5084806;28;20248;-77
2021/05/06 04:55:25;;;;;;;8.83;8.03;;;;;;;4.73;72.95;99564.25;5085168;28;20246;-76
2021/05/06 04:58:18;;;;;;;8.50;7.90;;;;;;;4.71;73.14;99566.00;5084351;28;20231;-76
2021/05/06 05:06:15;;;;;;;8.57;7.83;;;;;;;4.66;74.37;99570.38;5084808;28;20207;-76
2021/05/06 05:08:45;;;;;;;9.40;8.40;;;;;;;4.68;74.58;99575.53;5084653;28;20224;-77
2021/05/06 05:11:28;;;;;;;9.27;8.57;;;;;;;4.66;76.16;99569.50;5086505;28;20291;-78
2021/05/06 05:24:56;;;;;;;11.73;10.83;;;;;;;3.93;82.29;99592.44;5085574;28;20297;-77
2021/05/06 05:27:23;;;;;;;11.57;10.47;;;;;;;3.61;83.08;99584.84;5085442;28;20277;-78
2021/05/06 05:29:50;;;;;;;12.90;11.60;;;;;;;3.73;83.06;99585.66;5085406;28;20204;-78
2021/05/06 05:32:17;;;;;;;14.57;13.47;;;;;;;3.57;84.02;99591.75;5085731;28;20216;-77
2021/05/06 05:34:45;;;;;;;14.40;13.00;;;;;;;3.56;84.41;99592.59;5084260;28;20238;-78
2021/05/06 05:37:17;;;;;;;14.87;13.43;;;;;;;3.52;85.10;99601.22;5085597;28;20224;-77
2021/05/06 05:39:56;;;;;;;16.43;15.07;;;;;;;3.41;85.31;99601.28;5084882;28;20208;-77
2021/05/06 05:42:36;;;;;;;15.97;14.37;;;;;;;3.38;85.69;99601.28;5084969;28;20902;-77
2021/05/06 05:45:41;;;;;;;16.77;15.03;;;;;;;3.25;85.81;99600.47;5084558;28;20649;-76
2021/05/06 05:56:16;;;;;;;16.20;14.70;;;;;;;3.42;85.62;99602.97;5085090;28;20979;-77
2021/05/06 05:58:42;;;;;;;17.37;15.07;;;;;;;3.55;86.05;99603.81;5084838;28;20310;-78
2021/05/06 06:01:08;;;;;;;16.27;14.73;;;;;;;3.67;85.84;99605.50;5085047;28;20200;-78
2021/05/06 06:03:34;;;;;;;16.40;15.00;;;;;;;3.60;85.63;99606.38;5083646;28;20752;-77
2021/05/06 06:06:02;;;;;;;16.40;15.10;;;;;;;3.70;85.56;99601.13;5084823;28;20231;-77
2021/05/06 06:08:30;;;;;;;15.43;14.07;;;;;;;3.73;85.12;99601.13;5084172;28;20252;-77
2021/05/06 06:10:56;;;;;;;19.73;17.80;;;;;;;3.64;85.26;99608.06;5083795;28;20208;-76
2021/05/06 06:13:22;;;;;;;16.47;14.87;;;;;;;3.69;85.14;99611.50;5083463;28;20234;-77
2021/05/06 06:15:56;;;;;;;17.60;16.03;;;;;;;3.49;84.62;99617.59;5084413;28;20235;-78
2021/05/06 06:18:26;;;;;;;16.87;15.57;;;;;;;3.38;85.75;99614.19;5083438;28;20309;-77
2021/05/06 06:20:59;;;;;;;17.53;15.93;;;;;;;3.49;85.92;99616.72;5083251;28;20685;-76
2021/05/06 06:23:27;;;;;;;16.43;15.23;;;;;;;3.62;85.74;99614.97;5084090;28;20217;-78
2021/05/06 06:25:53;;;;;;;16.53;15.03;;;;;;;3.49;85.08;99621.88;5084563;28;20247;-77
2021/05/06 06:28:19;;;;;;;16.27;14.77;;;;;;;3.40;85.84;99625.34;5084089;28;20279;-78
2021/05/06 06:30:45;;;;;;;18.67;17.03;;;;;;;3.32;87.19;99615.03;5084530;28;20203;-77
2021/05/06 06:33:11;;;;;;;17.47;16.03;;;;;;;3.31;86.48;99620.19;5083421;28;20583;-77
2021/05/06 06:35:37;;;;;;;18.77;15.97;;;;;;;3.40;87.05;99612.44;5084210;28;20254;-77
2021/05/06 06:38:03;;;;;;;17.63;16.10;;;;;;;3.29;86.75;99620.22;5083640;28;20690;-77
2021/05/06 06:40:29;;;;;;;17.17;15.60;;;;;;;3.18;86.90;99617.66;5083327;28;20630;-77
2021/05/06 06:42:55;;;;;;;18.03;16.23;;;;;;;3.07;86.66;99613.38;5082608;28;20217;-77
2021/05/06 06:45:21;;;;;;;19.57;17.57;;;;;;;3.10;87.49;99621.13;5082315;28;20676;-77
2021/05/06 06:47:51;;;;;;;19.00;17.30;;;;;;;3.04;87.75;99616.84;5082988;28;20227;-77
2021/05/06 06:50:18;;;;;;;16.70;15.30;;;;;;;3.11;87.71;99621.13;5083194;28;20207;-77
2021/05/06 06:52:44;;;;;;;17.63;16.13;;;;;;;3.25;88.11;99626.25;5082979;28;20341;-77
2021/05/06 06:55:10;;;;;;;16.27;14.97;;;;;;;3.36;88.00;99621.91;5084515;28;20234;-76
2021/05/06 06:57:36;;;;;;;17.70;16.03;;;;;;;3.54;88.58;99613.25;5083106;28;20262;-77
2021/05/06 07:00:03;;;;;;;16.20;14.90;;;;;;;3.41;87.20;99624.50;5084157;28;20286;-77
2021/05/06 07:02:29;;;;;;;16.47;15.17;;;;;;;3.44;87.48;99618.47;5082843;28;20258;-77
2021/05/06 07:04:55;;;;;;;23.80;21.87;;;;;;;3.34;87.60;99618.47;5083195;28;20223;-77
2021/05/06 07:07:22;;;;;;;38.97;26.63;;;;;;;3.24;87.65;99624.53;5082293;28;20277;-77
2021/05/06 07:09:47;;;;;;;19.73;17.83;;;;;;;3.33;87.81;99631.38;5082788;28;20206;-77
2021/05/06 07:12:13;;;;;;;17.40;16.10;;;;;;;3.25;88.28;99627.97;5083652;28;20288;-78
2021/05/06 07:14:39;;;;;;;17.40;15.90;;;;;;;3.15;87.97;99619.38;5082666;28;20282;-77
2021/05/06 07:17:05;;;;;;;16.97;15.67;;;;;;;3.38;88.95;99627.91;5083191;28;20264;-78
2021/05/06 07:19:31;;;;;;;17.20;15.73;;;;;;;3.42;87.68;99623.63;5082772;28;20207;-77
2021/05/06 07:21:57;;;;;;;16.10;14.90;;;;;;;3.44;87.33;99626.19;5082256;28;20745;-77
2021/05/06 07:24:23;;;;;;;15.07;13.77;;;;;;;3.60;87.74;99629.59;5082805;28;20675;-75
2021/05/06 07:26:49;;;;;;;15.47;14.27;;;;;;;3.66;86.82;99626.97;5082147;28;20246;-75
2021/05/06 07:29:18;;;;;;;14.27;13.17;;;;;;;3.69;86.37;99627.84;5083248;28;20704;-76
2021/05/06 07:31:44;;;;;;;15.03;13.83;;;;;;;3.88;86.28;99635.47;5083275;28;20238;-76
2021/05/06 07:34:10;;;;;;;15.63;14.27;;;;;;;3.67;86.25;99628.72;5081777;28;20289;-75
2021/05/06 07:36:36;;;;;;;16.73;15.47;;;;;;;3.60;86.56;99637.31;5082302;28;20211;-75
2021/05/06 07:39:02;;;;;;;16.23;14.93;;;;;;;3.54;87.60;99636.47;5081856;28;20211;-76
2021/05/06 07:41:28;;;;;;;16.10;14.80;;;;;;;3.84;87.65;99632.06;5082776;28;20239;-75
2021/05/06 07:43:54;;;;;;;16.43;15.13;;;;;;;3.99;87.01;99633.72;5082365;28;20726;-77
2021/05/06 07:46:20;;;;;;;15.20;14.00;;;;;;;3.96;86.52;99638.88;5082053;28;20212;-76
2021/05/06 07:48:46;;;;;;;18.47;17.10;;;;;;;4.14;86.99;99635.34;5081588;28;20277;-75
2021/05/06 07:51:12;;;;;;;17.13;15.73;;;;;;;3.94;86.80;99631.16;5081904;28;20217;-76
2021/05/06 07:53:42;;;;;;;18.47;16.90;;;;;;;4.01;86.66;99628.56;5082066;28;20291;-75
2021/05/06 07:56:08;;;;;;;18.53;17.00;;;;;;;4.07;86.73;99629.38;5084475;28;20211;-75
2021/05/06 07:58:35;;;;;;;20.10;18.57;;;;;;;4.18;86.96;99626.72;5086509;28;20595;-75
2021/05/06 08:01:00;;;;;;;20.07;18.30;;;;;;;4.17;87.52;99617.25;5086705;28;20219;-75
2021/05/06 08:03:26;;;;;;;20.40;18.83;;;;;;;4.22;86.87;99623.22;5085088;28;20561;-75
2021/05/06 08:05:56;;;;;;;19.63;18.13;;;;;;;4.35;87.31;99622.28;5086358;28;20220;-75
2021/05/06 08:08:23;;;;;;;18.37;17.00;;;;;;;4.43;86.36;99621.41;5085775;28;20227;-76
2021/05/06 08:10:49;;;;;;;18.67;17.37;;;;;;;4.60;86.24;99619.53;5085612;28;20231;-75
2021/05/06 08:13:14;;;;;;;20.03;18.30;;;;;;;4.73;85.63;99620.28;5085020;28;20231;-76
2021/05/06 08:15:41;;;;;;;19.87;18.27;;;;;;;4.74;86.16;99620.28;5085326;28;20306;-76
2021/05/06 08:18:07;;;;;;;18.67;17.20;;;;;;;5.09;86.14;99618.22;5085126;28;20652;-76
2021/05/06 08:20:33;;;;;;;15.67;14.57;;;;;;;4.95;83.97;99619.22;5084922;28;20235;-75
2021/05/06 08:22:59;;;;;;;17.17;15.87;;;;;;;4.72;84.39;99622.03;5085314;28;20207;-75
2021/05/06 08:25:26;;;;;;;16.30;15.10;;;;;;;4.95;84.77;99616.63;5085329;28;20249;-75
2021/05/06 08:27:52;;;;;;;14.97;13.87;;;;;;;4.90;83.43;99614.97;5085394;28;20226;-75
2021/05/06 08:30:18;;;;;;;16.40;15.13;;;;;;;5.04;85.04;99614.84;5086466;28;20204;-76
2021/05/06 08:32:45;;;;;;;17.00;15.70;;;;;;;5.20;85.00;99624.16;5085030;28;20237;-76
2021/05/06 08:35:12;;;;;;;15.10;14.00;;;;;;;5.26;83.39;99618.94;5085743;28;20697;-76
2021/05/06 08:37:37;;;;;;;13.13;12.13;;;;;;;5.10;81.79;99622.56;5085092;28;20228;-75
2021/05/06 08:40:06;;;;;;;13.03;12.10;;;;;;;5.29;83.05;99629.25;5085014;28;20257;-76
2021/05/06 08:42:32;;;;;;;14.37;13.33;;;;;;;5.45;83.73;99627.34;5084221;28;20625;-76
2021/05/06 08:44:58;;;;;;;12.83;11.93;;;;;;;5.40;81.96;99631.72;5085246;28;20224;-76
2021/05/06 08:47:24;;;;;;;13.37;12.47;;;;;;;5.58;82.87;99636.69;5085513;28;20270;-75
2021/05/06 08:49:51;;;;;;;12.00;11.20;;;;;;;5.31;80.94;99640.44;5085309;28;20215;-76
2021/05/06 08:52:19;;;;;;;12.80;11.90;;;;;;;5.30;81.97;99638.72;5084960;28;20238;-76
2021/05/06 08:54:46;;;;;;;12.50;11.60;;;;;;;5.23;80.81;99641.38;5084844;28;20640;-76
2021/05/06 08:57:13;;;;;;;12.03;11.13;;;;;;;5.20;81.09;99634.50;5085091;28;20277;-75
2021/05/06 08:59:39;;;;;;;11.17;10.37;;;;;;;5.05;79.88;99638.09;5085446;28;20223;-75
2021/05/06 09:02:04;;;;;;;11.50;10.70;;;;;;;4.99;80.38;99645.91;5085896;28;20196;-75
2021/05/06 09:04:31;;;;;;;12.27;11.37;;;;;;;5.08;81.40;99637.22;5085650;28;20231;-74
2021/05/06 09:06:59;;;;;;;12.70;11.90;;;;;;;5.20;82.20;99647.44;5085202;28;20601;-74
2021/05/06 09:09:27;;;;;;;11.93;11.13;;;;;;;5.20;81.82;99650.03;5085668;28;20239;-75
2021/05/06 09:11:54;;;;;;;10.23;9.53;;;;;;;5.46;81.08;99647.16;5085907;28;20678;-74
2021/05/06 09:14:36;;;;;;;10.03;9.23;;;;;;;5.52;80.34;99654.03;5084868;28;20216;-75
2021/05/06 09:17:02;;;;;;;9.23;8.63;;;;;;;5.66;78.86;99652.13;5085525;28;20230;-75
2021/05/06 09:19:28;;;;;;;10.70;9.90;;;;;;;5.72;78.71;99653.78;5085419;28;20234;-74
2021/05/06 09:21:55;;;;;;;8.97;8.30;;;;;;;5.81;78.05;99640.75;5085183;28;20674;-76
2021/05/06 09:24:24;;;;;;;9.17;8.57;;;;;;;6.07;77.64;99642.16;5085601;28;20232;-76
2021/05/06 09:26:53;;;;;;;9.83;9.07;;;;;;;6.15;75.90;99646.34;5084429;28;20231;-75
2021/05/06 09:29:29;;;;;;;9.40;8.60;;;;;;;6.22;75.80;99641.94;5085508;28;20235;-74
2021/05/06 09:32:08;;;;;;;9.13;8.37;;;;;;;6.21;75.59;99644.56;5083850;28;20585;-76
2021/05/06 09:34:36;;;;;;;7.23;6.77;;;;;;;6.44;73.90;99644.22;5084319;28;20223;-75
2021/05/06 09:37:02;;;;;;;6.37;5.87;;;;;;;6.64;73.96;99646.50;5084174;28;20223;-74
2021/05/06 09:39:29;;;;;;;6.77;6.27;;;;;;;6.69;72.51;99645.56;5083194;28;20250;-75
2021/05/06 09:42:07;;;;;;;5.83;5.43;;;;;;;6.62;70.14;99645.69;5084633;28;20250;-75
2021/05/06 09:44:51;;;;;;;5.50;5.10;;;;;;;6.21;69.64;99645.44;5083838;28;20251;-76
2021/05/06 09:47:17;;;;;;;6.50;5.90;;;;;;;6.21;71.63;99650.59;5083393;28;20228;-75
2021/05/06 09:49:43;;;;;;;5.13;4.73;;;;;;;6.45;71.56;99643.34;5083341;28;20204;-75
2021/05/06 09:52:09;;;;;;;6.93;6.33;;;;;;;6.64;72.70;99651.69;5084024;28;20314;-75
2021/05/06 09:54:46;;;;;;;4.93;4.53;;;;;;;6.50;68.24;99644.13;5083953;28;20686;-75
2021/05/06 09:57:11;;;;;;;4.50;4.10;;;;;;;6.46;67.51;99642.47;5083466;28;20247;-74
2021/05/06 09:59:39;;;;;;;5.03;4.60;;;;;;;6.74;68.11;99641.16;5083946;28;20200;-75
2021/05/06 10:02:10;;;;;;;6.20;5.73;;;;;;;6.93;69.12;99641.69;5082981;28;20200;-75
2021/05/06 10:04:37;;;;;;;5.63;4.73;;;;;;;7.20;68.70;99642.13;5082756;28;20224;-76
2021/05/06 10:07:14;;;;;;;5.17;4.70;;;;;;;7.14;66.00;99648.28;5083456;28;20228;-75
2021/05/06 10:09:53;;;;;;;6.13;5.53;;;;;;;7.22;68.16;99644.69;5082250;28;20207;-75
2021/05/06 10:12:19;;;;;;;5.83;5.43;;;;;;;7.38;68.18;99638.31;5083665;28;20257;-75
2021/05/06 10:14:46;;;;;;;4.70;4.40;;;;;;;7.19;65.11;99642.13;5082348;28;20222;-75
2021/05/06 10:17:14;;;;;;;4.73;4.33;;;;;;;7.20;64.04;99634.34;5083359;28;20257;-75
2021/05/06 10:19:40;;;;;;;4.10;3.70;;;;;;;7.16;62.96;99633.53;5082281;28;20245;-74
2021/05/06 10:22:07;;;;;;;4.87;4.57;;;;;;;7.59;66.26;99633.59;5083226;28;20216;-76
2021/05/06 10:24:33;;;;;;;6.03;4.20;;;;;;;7.85;65.09;99635.66;5081373;28;20285;-76
2021/05/06 10:27:01;;;;;;;5.17;4.60;;;;;;;8.16;63.48;99633.25;5082233;28;20226;-76
2021/05/06 10:29:27;;;;;;;5.00;4.60;;;;;;;8.05;62.23;99623.13;5082700;28;20247;-76
2021/05/06 10:31:54;;;;;;;3.70;3.40;;;;;;;7.83;59.30;99634.84;5083089;28;20236;-76
2021/05/06 10:34:33;;;;;;;;;;;;;;;7.92;61.83;99632.06;4778919;27;10001457;-75
2021/05/06 10:36:59;;;;;;;4.17;3.90;;;;;;;7.94;61.62;99627.69;5080569;28;20467;-75
2021/05/06 10:39:37;;;;;;;4.80;4.50;;;;;;;7.49;64.71;99635.50;5079098;28;20230;-75
2021/05/06 10:42:32;;;;;;;5.53;4.57;;;;;;;7.43;62.91;99633.03;5079701;28;20283;-75
2021/05/06 10:44:59;;;;;;;5.43;4.50;;;;;;;7.26;64.47;99631.63;5077568;28;20287;-75
2021/05/06 10:47:51;;;;;;;5.40;4.90;;;;;;;7.40;65.78;99635.72;5080025;28;20231;-75
2021/05/06 10:50:18;;;;;;;5.27;4.77;;;;;;;7.15;64.25;99630.94;5079373;28;20236;-75
2021/05/06 10:52:47;;;;;;;4.33;4.03;;;;;;;7.45;63.39;99629.53;5078922;28;20249;-76
2021/05/06 10:55:14;;;;;;;4.80;4.50;;;;;;;7.83;63.43;99622.72;5079578;28;20203;-75
2021/05/06 10:57:42;;;;;;;5.17;4.67;;;;;;;8.22;63.71;99616.69;5079939;28;20289;-75
2021/05/06 11:00:23;;;;;;;3.73;3.43;;;;;;;7.95;56.74;99612.06;5079776;28;20652;-76
2021/05/06 11:02:51;;;;;;;3.80;3.50;;;;;;;7.91;57.08;99602.63;5079818;28;20601;-75
2021/05/06 11:05:19;;;;;;;4.73;4.33;;;;;;;8.16;61.17;99602.91;5079667;28;20228;-75
2021/05/06 11:08:22;;;;;;;5.03;3.20;;;;;;;8.17;54.98;99606.41;5079877;28;20232;-76
2021/05/06 11:11:13;;;;;;;3.30;3.00;;;;;;;8.05;55.68;99598.88;5080164;28;20280;-75
2021/05/06 11:14:02;;;;;;;3.60;3.30;;;;;;;8.36;57.58;99599.00;5079519;28;20244;-76
2021/05/06 11:16:29;;;;;;;4.10;2.80;;;;;;;8.74;57.27;99598.13;5079830;28;20690;-75
2021/05/06 11:18:57;;;;;;;4.03;3.73;;;;;;;9.04;56.43;99595.63;5079484;28;20498;-76
2021/05/06 11:21:37;;;;;;;4.30;3.90;;;;;;;8.87;56.09;99590.00;5079097;28;20652;-75
2021/05/06 11:24:17;;;;;;;4.03;3.67;;;;;;;9.28;57.25;99594.13;5079585;28;20218;-75
2021/05/06 11:27:13;;;;;;;3.57;3.27;;;;;;;9.81;55.18;99583.09;5079306;28;21033;-76
2021/05/06 11:29:40;;;;;;;3.27;3.03;;;;;;;10.14;50.64;99591.59;5080329;28;20667;-76
2021/05/06 11:32:20;;;;;;;3.53;3.30;;;;;;;11.88;53.84;99582.22;5083900;28;20407;-76
2021/05/06 11:34:50;;;;;;;3.50;3.20;;;;;;;12.39;46.72;99578.50;5083357;28;20666;-76
2021/05/06 11:37:24;;;;;;;4.53;3.20;;;;;;;12.61;45.17;99572.41;5083392;28;20221;-76
2021/05/06 11:39:53;;;;;;;3.37;3.07;;;;;;;12.78;44.51;99572.53;5084555;28;20500;-77
2021/05/06 11:42:20;;;;;;;3.23;2.93;;;;;;;14.09;44.18;99567.63;5083990;28;20218;-76
2021/05/06 11:45:23;;;;;;;3.70;3.10;;;;;;;13.93;42.59;99561.38;5083416;28;20308;-73
2021/05/06 11:47:50;;;;;;;3.53;3.33;;;;;;;11.21;48.22;99572.50;5080640;28;20226;-74
2021/05/06 11:50:25;;;;;;;3.93;3.17;;;;;;;11.22;48.51;99575.06;5079259;28;20284;-73
2021/05/06 11:52:51;;;;;;;3.27;3.00;;;;;;;10.56;50.99;99573.84;5081780;28;20247;-75
2021/05/06 11:55:34;;;;;;;3.30;3.10;;;;;;;10.21;50.04;99563.59;5083906;28;20611;-76
2021/05/06 11:58:00;;;;;;;3.90;3.00;;;;;;;10.08;51.16;99559.66;5083326;28;20230;-76
2021/05/06 12:00:29;;;;;;;3.73;3.23;;;;;;;9.71;51.29;99566.84;5084498;28;20239;-76
2021/05/06 12:02:59;;;;;;;3.90;3.50;;;;;;;9.61;52.90;99565.41;5083075;28;20199;-76
2021/05/06 12:05:55;;;;;;;3.70;3.50;;;;;;;10.67;51.11;99556.91;5083731;28;20231;-76
2021/05/06 12:08:22;;;;;;;3.00;2.80;;;;;;;11.00;44.70;99556.69;5082939;28;20231;-77
2021/05/06 12:10:48;;;;;;;2.70;2.50;;;;;;;13.44;43.57;99540.03;5083580;28;20205;-77
2021/05/06 12:13:15;;;;;;;3.67;3.33;;;;;;;13.29;41.26;99538.91;5082736;28;20607;-74
2021/05/06 12:15:42;;;;;;;3.50;3.00;;;;;;;13.73;40.70;99533.44;5082946;28;20228;-74
2021/05/06 12:18:20;;;;;;;3.30;3.10;;;;;;;15.01;41.92;99532.50;5082376;28;20249;-74
2021/05/06 12:20:54;;;;;;;2.70;2.50;;;;;;;15.60;38.26;99524.97;5081892;28;20206;-74
2021/05/06 12:23:21;;;;;;;3.00;2.80;;;;;;;15.22;37.08;99531.38;5082843;28;20199;-74
2021/05/06 12:25:47;;;;;;;3.70;3.10;;;;;;;15.27;37.71;99518.81;5082146;28;20586;-74
2021/05/06 12:28:13;;;;;;;3.53;3.33;;;;;;;16.01;34.68;99517.44;5083098;28;20231;-73
2021/05/06 12:30:39;;;;;;;2.80;2.60;;;;;;;13.72;36.92;99520.44;5082341;28;20211;-74
2021/05/06 12:33:06;;;;;;;2.90;2.70;;;;;;;12.72;40.56;99515.19;5082074;28;20222;-73
2021/05/06 12:35:32;;;;;;;3.43;3.13;;;;;;;12.20;41.86;99518.22;5084020;28;20480;-79
2021/05/06 12:37:58;;;;;;;3.07;2.87;;;;;;;11.88;42.73;99509.84;5085807;28;20226;-78
2021/05/06 12:40:27;;;;;;;3.30;3.00;;;;;;;11.94;42.63;99510.56;5083274;28;20634;-77
2021/05/06 12:42:53;;;;;;;2.77;2.57;;;;;;;10.80;42.55;99515.59;5081911;28;20208;-77
2021/05/06 12:45:31;;;;;;;2.40;2.20;;;;;;;11.16;44.59;99511.72;5083829;28;20229;-78
2021/05/06 12:47:57;;;;;;;3.30;3.10;;;;;;;11.85;42.63;99504.75;5083795;28;20767;-78
2021/05/06 12:50:28;;;;;;;3.87;3.17;;;;;;;12.06;43.00;99502.22;5083494;28;20217;-78
2021/05/06 12:52:55;;;;;;;3.50;3.30;;;;;;;11.45;44.95;99514.09;5083129;28;20201;-77
2021/05/06 12:55:23;;;;;;;3.97;3.67;;;;;;;10.71;46.90;99516.75;5083664;28;20208;-77
2021/05/06 12:58:05;;;;;;;3.73;3.43;;;;;;;11.25;45.16;99493.09;5083351;28;20228;-79
2021/05/06 13:00:32;;;;;;;4.03;3.63;;;;;;;11.25;45.37;99504.38;5083178;28;20206;-78
2021/05/06 13:03:01;;;;;;;3.50;3.20;;;;;;;11.35;43.51;99504.91;5082810;28;20508;-77
2021/05/06 13:05:30;;;;;;;2.93;2.67;;;;;;;12.65;40.16;99492.81;5082974;28;21232;-77
2021/05/06 13:07:56;;;;;;;2.10;1.90;;;;;;;12.39;38.03;99488.66;5082280;28;20221;-75
2021/05/06 13:10:34;;;;;;;2.20;1.90;;;;;;;11.81;38.19;99484.00;5082313;28;20684;-79
2021/05/06 13:12:59;;;;;;;2.40;2.30;;;;;;;12.18;38.71;99487.78;5082444;28;20210;-77
2021/05/06 13:15:25;;;;;;;2.70;2.50;;;;;;;12.20;40.05;99481.56;5082793;28;20224;-77
2021/05/06 13:17:52;;;;;;;1.90;1.80;;;;;;;11.94;38.50;99480.03;5082918;28;20743;-77
2021/05/06 13:20:21;;;;;;;2.10;2.00;;;;;;;12.23;38.96;99477.97;5082202;28;20216;-77
2021/05/06 13:23:01;;;;;;;2.20;2.10;;;;;;;12.07;37.77;99483.84;5082866;28;20877;-78
2021/05/06 13:25:47;;;;;;;2.93;2.73;;;;;;;12.87;39.67;99477.88;5082216;28;20232;-78
2021/05/06 13:28:15;;;;;;;2.17;2.07;;;;;;;12.34;37.27;99469.69;5081893;28;20525;-77
2021/05/06 13:30:42;;;;;;;2.80;2.60;;;;;;;12.15;38.64;99473.09;5080685;28;20236;-78
2021/05/06 13:33:18;;;;;;;2.30;2.10;;;;;;;12.33;38.97;99468.84;5081155;28;20713;-77
2021/05/06 13:36:02;;;;;;;2.53;2.33;;;;;;;12.36;39.51;99466.09;5080947;28;20208;-78
2021/05/06 13:38:51;;;;;;;2.30;2.13;;;;;;;13.02;37.33;99467.63;5082102;28;21031;-78
2021/05/06 13:41:18;;;;;;;1.90;1.80;;;;;;;12.78;37.28;99456.47;5082754;28;20209;-78
2021/05/06 13:43:44;;;;;;;2.43;2.33;;;;;;;12.58;37.50;99462.56;5080962;28;20277;-77
2021/05/06 13:46:10;;;;;;;3.30;2.90;;;;;;;12.34;38.76;99451.38;5082171;28;20226;-77
2021/05/06 13:48:36;;;;;;;2.80;2.60;;;;;;;12.65;37.03;99450.94;5082017;28;20303;-77
2021/05/06 13:51:04;;;;;;;2.80;2.60;;;;;;;13.46;37.02;99452.53;5081869;28;20211;-78
2021/05/06 13:53:29;;;;;;;3.33;3.13;;;;;;;13.17;36.71;99447.75;5080054;28;20221;-78
2021/05/06 13:55:56;;;;;;;3.43;3.23;;;;;;;13.28;39.50;99443.72;5082345;28;20253;-78
2021/05/06 13:58:22;;;;;;;3.77;3.57;;;;;;;13.40;38.89;99449.31;5082497;28;20532;-77
2021/05/06 14:00:48;;;;;;;3.33;3.13;;;;;;;13.20;40.60;99444.97;5081420;28;20214;-77
2021/05/06 14:03:14;;;;;;;3.60;3.40;;;;;;;13.84;40.64;99444.63;5081619;28;20243;-78
2021/05/06 14:05:40;;;;;;;3.60;3.37;;;;;;;14.98;38.49;99430.97;5081495;28;20262;-75